sensor_id;sensor_type;location;lat;lon;timestamp;P1;durP1;ratioP1;P2;durP2;ratioP2
20519;SDS011;53432;51.952;14.740;2022-10-31T00:00:31;14.63;;;9.10;;
20519;SDS011;53432;51.952;14.740;2022-10-31T00:02:58;20.92;;;10.70;;
20519;SDS011;53432;51.952;14.740;2022-10-31T00:05:26;20.65;;;10.18;;
20519;SDS011;53432;51.952;14.740;2022-10-31T00:07:53;18.77;;;9.68;;
20519;SDS011;53432;51.952;14.740;2022-10-31T00:10:20;23.40;;;10.95;;
20519;SDS011;53432;51.952;14.740;2022-10-31T00:12:47;27.52;;;10.77;;
20519;SDS011;53432;51.952;14.740;2022-10-31T00:15:15;19.27;;;10.02;;
20519;SDS011;53432;51.952;14.740;2022-10-31T00:17:43;16.52;;;9.35;;
20519;SDS011;53432;51.952;14.740;2022-10-31T00:20:11;20.80;;;10.73;;
20519;SDS011;53432;51.952;14.740;2022-10-31T00:22:38;19.33;;;9.93;;
20519;SDS011;53432;51.952;14.740;2022-10-31T00:25:05;20.83;;;11.15;;
20519;SDS011;53432;51.952;14.740;2022-10-31T00:27:33;19.10;;;9.75;;
20519;SDS011;53432;51.952;14.740;2022-10-31T00:30:00;19.13;;;10.10;;
20519;SDS011;53432;51.952;14.740;2022-10-31T00:32:28;23.35;;;10.68;;
20519;SDS011;53432;51.952;14.740;2022-10-31T00:34:57;19.13;;;9.98;;
20519;SDS011;53432;51.952;14.740;2022-10-31T00:37:25;15.18;;;10.10;;
20519;SDS011;53432;51.952;14.740;2022-10-31T00:39:53;22.00;;;10.48;;
20519;SDS011;53432;51.952;14.740;2022-10-31T00:42:20;22.55;;;10.50;;
20519;SDS011;53432;51.952;14.740;2022-10-31T00:44:47;18.83;;;9.73;;
20519;SDS011;53432;51.952;14.740;2022-10-31T00:47:15;21.00;;;9.80;;
20519;SDS011;53432;51.952;14.740;2022-10-31T00:49:42;20.23;;;9.95;;
20519;SDS011;53432;51.952;14.740;2022-10-31T00:52:10;19.58;;;10.23;;
20519;SDS011;53432;51.952;14.740;2022-10-31T00:54:38;23.10;;;11.32;;
20519;SDS011;53432;51.952;14.740;2022-10-31T00:57:05;20.55;;;10.85;;
20519;SDS011;53432;51.952;14.740;2022-10-31T00:59:32;19.77;;;9.65;;
20519;SDS011;53432;51.952;14.740;2022-10-31T01:02:00;19.63;;;9.45;;
20519;SDS011;53432;51.952;14.740;2022-10-31T01:04:27;17.63;;;10.00;;
20519;SDS011;53432;51.952;14.740;2022-10-31T01:06:54;16.65;;;9.40;;
20519;SDS011;53432;51.952;14.740;2022-10-31T01:09:23;23.33;;;11.57;;
20519;SDS011;53432;51.952;14.740;2022-10-31T01:11:50;31.25;;;12.82;;
20519;SDS011;53432;51.952;14.740;2022-10-31T01:14:18;14.55;;;9.45;;
20519;SDS011;53432;51.952;14.740;2022-10-31T01:16:45;12.68;;;9.45;;
20519;SDS011;53432;51.952;14.740;2022-10-31T01:19:12;20.48;;;10.35;;
20519;SDS011;53432;51.952;14.740;2022-10-31T01:21:40;15.45;;;9.57;;
20519;SDS011;53432;51.952;14.740;2022-10-31T01:24:07;18.13;;;9.80;;
20519;SDS011;53432;51.952;14.740;2022-10-31T01:26:36;21.42;;;10.05;;
20519;SDS011;53432;51.952;14.740;2022-10-31T01:29:04;23.55;;;10.18;;
20519;SDS011;53432;51.952;14.740;2022-10-31T01:31:34;20.42;;;10.93;;
20519;SDS011;53432;51.952;14.740;2022-10-31T01:34:03;20.08;;;9.27;;
20519;SDS011;53432;51.952;14.740;2022-10-31T01:36:31;26.50;;;9.73;;
20519;SDS011;53432;51.952;14.740;2022-10-31T01:39:00;19.35;;;10.52;;
20519;SDS011;53432;51.952;14.740;2022-10-31T01:41:31;20.75;;;10.32;;
20519;SDS011;53432;51.952;14.740;2022-10-31T01:44:01;19.88;;;9.68;;
20519;SDS011;53432;51.952;14.740;2022-10-31T01:46:30;22.13;;;10.95;;
20519;SDS011;53432;51.952;14.740;2022-10-31T01:49:01;19.33;;;12.20;;
20519;SDS011;53432;51.952;14.740;2022-10-31T01:51:32;20.52;;;11.60;;
20519;SDS011;53432;51.952;14.740;2022-10-31T01:54:03;18.67;;;11.05;;
20519;SDS011;53432;51.952;14.740;2022-10-31T01:56:33;24.15;;;11.88;;
20519;SDS011;53432;51.952;14.740;2022-10-31T01:59:07;23.58;;;12.80;;
20519;SDS011;53432;51.952;14.740;2022-10-31T02:01:37;26.77;;;14.65;;
20519;SDS011;53432;51.952;14.740;2022-10-31T02:04:05;21.85;;;12.07;;
20519;SDS011;53432;51.952;14.740;2022-10-31T02:06:35;24.20;;;11.32;;
20519;SDS011;53432;51.952;14.740;2022-10-31T02:09:07;21.38;;;11.35;;
20519;SDS011;53432;51.952;14.740;2022-10-31T02:11:35;19.13;;;11.25;;
20519;SDS011;53432;51.952;14.740;2022-10-31T02:14:03;20.20;;;10.13;;
20519;SDS011;53432;51.952;14.740;2022-10-31T02:16:31;21.25;;;10.88;;
20519;SDS011;53432;51.952;14.740;2022-10-31T02:18:59;22.42;;;11.30;;
20519;SDS011;53432;51.952;14.740;2022-10-31T02:21:28;17.45;;;10.50;;
20519;SDS011;53432;51.952;14.740;2022-10-31T02:24:17;17.15;;;11.05;;
20519;SDS011;53432;51.952;14.740;2022-10-31T02:27:09;27.80;;;13.48;;
20519;SDS011;53432;51.952;14.740;2022-10-31T02:32:52;24.95;;;11.68;;
20519;SDS011;53432;51.952;14.740;2022-10-31T02:35:28;19.42;;;10.30;;
20519;SDS011;53432;51.952;14.740;2022-10-31T02:38:04;17.20;;;10.38;;
20519;SDS011;53432;51.952;14.740;2022-10-31T02:40:44;21.52;;;12.25;;
20519;SDS011;53432;51.952;14.740;2022-10-31T02:43:18;21.85;;;11.45;;
20519;SDS011;53432;51.952;14.740;2022-10-31T02:45:48;24.05;;;10.02;;
20519;SDS011;53432;51.952;14.740;2022-10-31T02:48:23;17.27;;;10.75;;
20519;SDS011;53432;51.952;14.740;2022-10-31T02:50:54;19.83;;;9.93;;
20519;SDS011;53432;51.952;14.740;2022-10-31T02:53:23;22.20;;;11.65;;
20519;SDS011;53432;51.952;14.740;2022-10-31T02:55:54;24.30;;;11.32;;
20519;SDS011;53432;51.952;14.740;2022-10-31T02:58:26;21.55;;;10.73;;
20519;SDS011;53432;51.952;14.740;2022-10-31T03:01:04;21.27;;;9.80;;
20519;SDS011;53432;51.952;14.740;2022-10-31T03:04:10;18.90;;;10.40;;
20519;SDS011;53432;51.952;14.740;2022-10-31T03:06:45;27.70;;;12.80;;
20519;SDS011;53432;51.952;14.740;2022-10-31T03:09:20;18.88;;;9.65;;
20519;SDS011;53432;51.952;14.740;2022-10-31T03:11:53;20.90;;;10.00;;
20519;SDS011;53432;51.952;14.740;2022-10-31T03:14:26;26.33;;;10.82;;
20519;SDS011;53432;51.952;14.740;2022-10-31T03:17:01;20.88;;;9.77;;
20519;SDS011;53432;51.952;14.740;2022-10-31T03:19:34;20.10;;;9.70;;
20519;SDS011;53432;51.952;14.740;2022-10-31T03:22:07;26.60;;;11.30;;
20519;SDS011;53432;51.952;14.740;2022-10-31T03:24:39;20.35;;;9.23;;
20519;SDS011;53432;51.952;14.740;2022-10-31T03:27:08;22.60;;;10.50;;
20519;SDS011;53432;51.952;14.740;2022-10-31T03:29:40;19.65;;;10.05;;
20519;SDS011;53432;51.952;14.740;2022-10-31T03:32:12;18.95;;;9.35;;
20519;SDS011;53432;51.952;14.740;2022-10-31T03:34:45;17.42;;;8.98;;
20519;SDS011;53432;51.952;14.740;2022-10-31T03:37:14;16.42;;;9.05;;
20519;SDS011;53432;51.952;14.740;2022-10-31T03:39:44;19.67;;;9.40;;
20519;SDS011;53432;51.952;14.740;2022-10-31T03:42:14;20.85;;;9.02;;
20519;SDS011;53432;51.952;14.740;2022-10-31T03:44:45;14.38;;;9.43;;
20519;SDS011;53432;51.952;14.740;2022-10-31T03:47:16;17.35;;;8.73;;
20519;SDS011;53432;51.952;14.740;2022-10-31T03:49:45;22.10;;;8.90;;
20519;SDS011;53432;51.952;14.740;2022-10-31T03:52:13;18.65;;;9.00;;
20519;SDS011;53432;51.952;14.740;2022-10-31T03:54:51;16.48;;;11.05;;
20519;SDS011;53432;51.952;14.740;2022-10-31T03:57:24;19.08;;;9.68;;
20519;SDS011;53432;51.952;14.740;2022-10-31T03:59:57;14.95;;;8.88;;
20519;SDS011;53432;51.952;14.740;2022-10-31T04:02:30;19.35;;;9.35;;
20519;SDS011;53432;51.952;14.740;2022-10-31T04:05:01;15.63;;;9.25;;
20519;SDS011;53432;51.952;14.740;2022-10-31T04:07:31;15.88;;;8.98;;
20519;SDS011;53432;51.952;14.740;2022-10-31T04:10:02;13.65;;;8.23;;
20519;SDS011;53432;51.952;14.740;2022-10-31T04:12:33;15.15;;;9.10;;
20519;SDS011;53432;51.952;14.740;2022-10-31T04:15:02;15.25;;;8.98;;
20519;SDS011;53432;51.952;14.740;2022-10-31T04:17:33;18.13;;;8.98;;
20519;SDS011;53432;51.952;14.740;2022-10-31T04:20:05;17.20;;;9.30;;
20519;SDS011;53432;51.952;14.740;2022-10-31T04:22:34;18.05;;;8.68;;
20519;SDS011;53432;51.952;14.740;2022-10-31T04:25:01;21.15;;;9.63;;
20519;SDS011;53432;51.952;14.740;2022-10-31T04:27:28;16.00;;;8.63;;
20519;SDS011;53432;51.952;14.740;2022-10-31T04:29:55;15.27;;;9.32;;
20519;SDS011;53432;51.952;14.740;2022-10-31T04:32:23;22.38;;;9.98;;
20519;SDS011;53432;51.952;14.740;2022-10-31T04:34:50;16.13;;;9.75;;
20519;SDS011;53432;51.952;14.740;2022-10-31T04:37:19;19.77;;;9.75;;
20519;SDS011;53432;51.952;14.740;2022-10-31T04:39:46;18.15;;;9.15;;
20519;SDS011;53432;51.952;14.740;2022-10-31T04:42:13;16.02;;;8.80;;
20519;SDS011;53432;51.952;14.740;2022-10-31T04:44:40;18.80;;;10.55;;
20519;SDS011;53432;51.952;14.740;2022-10-31T04:47:08;15.40;;;9.18;;
20519;SDS011;53432;51.952;14.740;2022-10-31T04:49:35;17.73;;;9.00;;
20519;SDS011;53432;51.952;14.740;2022-10-31T04:52:02;16.92;;;9.10;;
20519;SDS011;53432;51.952;14.740;2022-10-31T04:54:31;19.63;;;9.90;;
20519;SDS011;53432;51.952;14.740;2022-10-31T04:56:59;22.63;;;10.50;;
20519;SDS011;53432;51.952;14.740;2022-10-31T04:59:26;20.50;;;9.60;;
20519;SDS011;53432;51.952;14.740;2022-10-31T05:01:53;20.50;;;9.85;;
20519;SDS011;53432;51.952;14.740;2022-10-31T05:04:20;18.45;;;9.90;;
20519;SDS011;53432;51.952;14.740;2022-10-31T05:06:48;15.75;;;9.23;;
20519;SDS011;53432;51.952;14.740;2022-10-31T05:09:15;19.35;;;9.27;;
20519;SDS011;53432;51.952;14.740;2022-10-31T05:11:44;17.98;;;9.60;;
20519;SDS011;53432;51.952;14.740;2022-10-31T05:14:11;17.75;;;8.82;;
20519;SDS011;53432;51.952;14.740;2022-10-31T05:16:38;20.17;;;10.50;;
20519;SDS011;53432;51.952;14.740;2022-10-31T05:19:05;14.27;;;8.90;;
20519;SDS011;53432;51.952;14.740;2022-10-31T05:21:33;17.27;;;9.57;;
20519;SDS011;53432;51.952;14.740;2022-10-31T05:24:00;17.15;;;9.23;;
20519;SDS011;53432;51.952;14.740;2022-10-31T05:26:27;19.65;;;10.73;;
20519;SDS011;53432;51.952;14.740;2022-10-31T05:28:56;16.40;;;11.02;;
20519;SDS011;53432;51.952;14.740;2022-10-31T05:31:23;16.33;;;10.60;;
20519;SDS011;53432;51.952;14.740;2022-10-31T05:33:50;17.08;;;9.95;;
20519;SDS011;53432;51.952;14.740;2022-10-31T05:36:18;16.77;;;9.38;;
20519;SDS011;53432;51.952;14.740;2022-10-31T05:38:45;22.98;;;10.18;;
20519;SDS011;53432;51.952;14.740;2022-10-31T05:41:12;18.52;;;8.93;;
20519;SDS011;53432;51.952;14.740;2022-10-31T05:43:39;18.25;;;10.43;;
20519;SDS011;53432;51.952;14.740;2022-10-31T05:46:08;19.67;;;10.32;;
20519;SDS011;53432;51.952;14.740;2022-10-31T05:48:35;19.58;;;11.68;;
20519;SDS011;53432;51.952;14.740;2022-10-31T05:51:03;30.13;;;15.35;;
20519;SDS011;53432;51.952;14.740;2022-10-31T05:53:30;27.73;;;14.73;;
20519;SDS011;53432;51.952;14.740;2022-10-31T05:55:57;25.42;;;15.45;;
20519;SDS011;53432;51.952;14.740;2022-10-31T05:58:25;24.58;;;14.70;;
20519;SDS011;53432;51.952;14.740;2022-10-31T06:00:52;17.92;;;12.23;;
20519;SDS011;53432;51.952;14.740;2022-10-31T06:03:21;18.73;;;11.07;;
20519;SDS011;53432;51.952;14.740;2022-10-31T06:05:48;15.18;;;10.82;;
20519;SDS011;53432;51.952;14.740;2022-10-31T06:08:15;20.50;;;11.80;;
20519;SDS011;53432;51.952;14.740;2022-10-31T06:10:43;16.38;;;10.07;;
20519;SDS011;53432;51.952;14.740;2022-10-31T06:13:10;17.60;;;9.13;;
20519;SDS011;53432;51.952;14.740;2022-10-31T06:15:37;16.98;;;8.98;;
20519;SDS011;53432;51.952;14.740;2022-10-31T06:18:05;16.60;;;9.95;;
20519;SDS011;53432;51.952;14.740;2022-10-31T06:20:34;11.85;;;8.10;;
20519;SDS011;53432;51.952;14.740;2022-10-31T06:23:01;17.88;;;8.93;;
20519;SDS011;53432;51.952;14.740;2022-10-31T06:25:29;15.63;;;9.45;;
20519;SDS011;53432;51.952;14.740;2022-10-31T06:27:56;15.38;;;9.57;;
20519;SDS011;53432;51.952;14.740;2022-10-31T06:30:23;16.33;;;10.63;;
20519;SDS011;53432;51.952;14.740;2022-10-31T06:32:51;15.23;;;8.75;;
20519;SDS011;53432;51.952;14.740;2022-10-31T06:35:18;17.10;;;10.02;;
20519;SDS011;53432;51.952;14.740;2022-10-31T06:37:51;17.20;;;9.27;;
20519;SDS011;53432;51.952;14.740;2022-10-31T06:40:19;23.77;;;11.25;;
20519;SDS011;53432;51.952;14.740;2022-10-31T06:42:47;12.88;;;7.97;;
20519;SDS011;53432;51.952;14.740;2022-10-31T06:45:21;14.25;;;8.60;;
20519;SDS011;53432;51.952;14.740;2022-10-31T06:47:50;15.27;;;9.25;;
20519;SDS011;53432;51.952;14.740;2022-10-31T06:50:17;17.05;;;8.80;;
20519;SDS011;53432;51.952;14.740;2022-10-31T06:52:49;18.02;;;8.90;;
20519;SDS011;53432;51.952;14.740;2022-10-31T06:55:18;17.67;;;9.00;;
20519;SDS011;53432;51.952;14.740;2022-10-31T06:57:51;14.32;;;8.15;;
20519;SDS011;53432;51.952;14.740;2022-10-31T07:00:18;16.60;;;8.00;;
20519;SDS011;53432;51.952;14.740;2022-10-31T07:02:52;14.98;;;7.88;;
20519;SDS011;53432;51.952;14.740;2022-10-31T07:05:20;14.98;;;8.10;;
20519;SDS011;53432;51.952;14.740;2022-10-31T07:07:52;15.07;;;8.38;;
20519;SDS011;53432;51.952;14.740;2022-10-31T07:10:20;15.65;;;8.52;;
20519;SDS011;53432;51.952;14.740;2022-10-31T07:12:47;16.38;;;7.88;;
20519;SDS011;53432;51.952;14.740;2022-10-31T07:15:15;16.70;;;8.25;;
20519;SDS011;53432;51.952;14.740;2022-10-31T07:17:42;15.90;;;7.63;;
20519;SDS011;53432;51.952;14.740;2022-10-31T07:20:09;13.57;;;7.53;;
20519;SDS011;53432;51.952;14.740;2022-10-31T07:22:37;13.23;;;7.82;;
20519;SDS011;53432;51.952;14.740;2022-10-31T07:25:06;13.40;;;7.43;;
20519;SDS011;53432;51.952;14.740;2022-10-31T07:27:36;12.15;;;7.80;;
20519;SDS011;53432;51.952;14.740;2022-10-31T07:30:05;13.68;;;7.20;;
20519;SDS011;53432;51.952;14.740;2022-10-31T07:32:39;13.18;;;6.97;;
20519;SDS011;53432;51.952;14.740;2022-10-31T07:35:07;14.00;;;7.45;;
20519;SDS011;53432;51.952;14.740;2022-10-31T07:37:36;15.13;;;8.65;;
20519;SDS011;53432;51.952;14.740;2022-10-31T07:40:03;11.70;;;6.97;;
20519;SDS011;53432;51.952;14.740;2022-10-31T07:42:34;12.70;;;7.20;;
20519;SDS011;53432;51.952;14.740;2022-10-31T07:45:02;12.73;;;6.82;;
20519;SDS011;53432;51.952;14.740;2022-10-31T07:47:30;22.73;;;10.35;;
20519;SDS011;53432;51.952;14.740;2022-10-31T07:50:05;14.38;;;8.45;;
20519;SDS011;53432;51.952;14.740;2022-10-31T07:52:32;20.63;;;8.30;;
20519;SDS011;53432;51.952;14.740;2022-10-31T07:55:00;16.60;;;8.90;;
20519;SDS011;53432;51.952;14.740;2022-10-31T07:57:29;15.13;;;8.57;;
20519;SDS011;53432;51.952;14.740;2022-10-31T07:59:56;14.75;;;8.73;;
20519;SDS011;53432;51.952;14.740;2022-10-31T08:02:24;21.48;;;8.15;;
20519;SDS011;53432;51.952;14.740;2022-10-31T08:04:51;15.80;;;8.20;;
20519;SDS011;53432;51.952;14.740;2022-10-31T08:07:20;16.25;;;7.53;;
20519;SDS011;53432;51.952;14.740;2022-10-31T08:09:47;13.25;;;7.63;;
20519;SDS011;53432;51.952;14.740;2022-10-31T08:12:15;12.38;;;7.65;;
20519;SDS011;53432;51.952;14.740;2022-10-31T08:14:43;16.85;;;8.23;;
20519;SDS011;53432;51.952;14.740;2022-10-31T08:17:11;13.07;;;7.25;;
20519;SDS011;53432;51.952;14.740;2022-10-31T08:19:38;16.25;;;7.55;;
20519;SDS011;53432;51.952;14.740;2022-10-31T08:22:05;10.40;;;6.90;;
20519;SDS011;53432;51.952;14.740;2022-10-31T08:24:33;11.05;;;7.32;;
20519;SDS011;53432;51.952;14.740;2022-10-31T08:27:00;11.63;;;6.97;;
20519;SDS011;53432;51.952;14.740;2022-10-31T08:29:27;18.48;;;6.60;;
20519;SDS011;53432;51.952;14.740;2022-10-31T08:31:56;14.38;;;7.00;;
20519;SDS011;53432;51.952;14.740;2022-10-31T08:34:24;13.10;;;6.80;;
20519;SDS011;53432;51.952;14.740;2022-10-31T08:36:52;16.73;;;6.80;;
20519;SDS011;53432;51.952;14.740;2022-10-31T08:39:19;13.98;;;7.25;;
20519;SDS011;53432;51.952;14.740;2022-10-31T08:41:46;11.27;;;6.60;;
20519;SDS011;53432;51.952;14.740;2022-10-31T08:44:13;11.35;;;6.05;;
20519;SDS011;53432;51.952;14.740;2022-10-31T08:46:42;16.20;;;6.93;;
20519;SDS011;53432;51.952;14.740;2022-10-31T08:49:10;12.00;;;6.72;;
20519;SDS011;53432;51.952;14.740;2022-10-31T08:51:38;14.60;;;6.30;;
20519;SDS011;53432;51.952;14.740;2022-10-31T08:54:05;14.48;;;6.75;;
20519;SDS011;53432;51.952;14.740;2022-10-31T08:56:32;13.05;;;8.05;;
20519;SDS011;53432;51.952;14.740;2022-10-31T08:58:59;12.68;;;8.00;;
20519;SDS011;53432;51.952;14.740;2022-10-31T09:01:27;12.02;;;6.03;;
20519;SDS011;53432;51.952;14.740;2022-10-31T09:03:55;12.43;;;6.35;;
20519;SDS011;53432;51.952;14.740;2022-10-31T09:06:23;15.90;;;6.53;;
20519;SDS011;53432;51.952;14.740;2022-10-31T09:08:50;16.65;;;7.63;;
20519;SDS011;53432;51.952;14.740;2022-10-31T09:11:18;12.95;;;6.63;;
20519;SDS011;53432;51.952;14.740;2022-10-31T09:13:45;12.27;;;6.38;;
20519;SDS011;53432;51.952;14.740;2022-10-31T09:16:12;13.38;;;6.55;;
20519;SDS011;53432;51.952;14.740;2022-10-31T09:18:40;12.32;;;6.63;;
20519;SDS011;53432;51.952;14.740;2022-10-31T09:21:07;14.25;;;6.10;;
20519;SDS011;53432;51.952;14.740;2022-10-31T09:23:35;12.13;;;5.82;;
20519;SDS011;53432;51.952;14.740;2022-10-31T09:26:03;14.07;;;6.32;;
20519;SDS011;53432;51.952;14.740;2022-10-31T09:28:32;10.32;;;5.82;;
20519;SDS011;53432;51.952;14.740;2022-10-31T09:30:59;15.43;;;5.60;;
20519;SDS011;53432;51.952;14.740;2022-10-31T09:33:26;10.95;;;4.93;;
20519;SDS011;53432;51.952;14.740;2022-10-31T09:35:54;16.45;;;5.72;;
20519;SDS011;53432;51.952;14.740;2022-10-31T09:38:21;18.02;;;6.60;;
20519;SDS011;53432;51.952;14.740;2022-10-31T09:40:51;12.43;;;6.60;;
20519;SDS011;53432;51.952;14.740;2022-10-31T09:43:29;12.02;;;5.82;;
20519;SDS011;53432;51.952;14.740;2022-10-31T09:46:12;9.50;;;4.97;;
20519;SDS011;53432;51.952;14.740;2022-10-31T09:48:54;12.38;;;5.95;;
20519;SDS011;53432;51.952;14.740;2022-10-31T09:51:34;21.52;;;6.50;;
20519;SDS011;53432;51.952;14.740;2022-10-31T09:54:08;14.90;;;6.60;;
20519;SDS011;53432;51.952;14.740;2022-10-31T09:56:40;14.05;;;6.68;;
20519;SDS011;53432;51.952;14.740;2022-10-31T09:59:11;8.68;;;5.57;;
20519;SDS011;53432;51.952;14.740;2022-10-31T10:01:48;10.30;;;6.07;;
20519;SDS011;53432;51.952;14.740;2022-10-31T10:07:10;14.20;;;6.00;;
20519;SDS011;53432;51.952;14.740;2022-10-31T10:09:43;11.45;;;6.43;;
20519;SDS011;53432;51.952;14.740;2022-10-31T10:12:15;18.95;;;5.65;;
20519;SDS011;53432;51.952;14.740;2022-10-31T10:14:51;11.95;;;5.45;;
20519;SDS011;53432;51.952;14.740;2022-10-31T10:17:36;12.43;;;5.90;;
20519;SDS011;53432;51.952;14.740;2022-10-31T10:20:22;12.25;;;5.50;;
20519;SDS011;53432;51.952;14.740;2022-10-31T10:23:02;16.70;;;6.53;;
20519;SDS011;53432;51.952;14.740;2022-10-31T10:25:45;12.07;;;6.43;;
20519;SDS011;53432;51.952;14.740;2022-10-31T10:28:20;12.50;;;6.10;;
20519;SDS011;53432;51.952;14.740;2022-10-31T10:30:53;14.52;;;6.50;;
20519;SDS011;53432;51.952;14.740;2022-10-31T10:33:24;10.32;;;5.40;;
20519;SDS011;53432;51.952;14.740;2022-10-31T10:35:57;13.70;;;5.93;;
20519;SDS011;53432;51.952;14.740;2022-10-31T10:38:29;8.05;;;5.05;;
20519;SDS011;53432;51.952;14.740;2022-10-31T10:41:01;12.23;;;5.72;;
20519;SDS011;53432;51.952;14.740;2022-10-31T10:43:34;10.60;;;5.38;;
20519;SDS011;53432;51.952;14.740;2022-10-31T10:46:12;9.60;;;5.85;;
20519;SDS011;53432;51.952;14.740;2022-10-31T10:49:03;8.23;;;5.00;;
20519;SDS011;53432;51.952;14.740;2022-10-31T10:51:40;16.52;;;5.68;;
20519;SDS011;53432;51.952;14.740;2022-10-31T10:54:33;7.90;;;5.25;;
20519;SDS011;53432;51.952;14.740;2022-10-31T10:57:19;9.75;;;5.20;;
20519;SDS011;53432;51.952;14.740;2022-10-31T10:59:55;13.32;;;5.07;;
20519;SDS011;53432;51.952;14.740;2022-10-31T11:02:23;9.95;;;5.45;;
20519;SDS011;53432;51.952;14.740;2022-10-31T11:04:53;11.73;;;5.05;;
20519;SDS011;53432;51.952;14.740;2022-10-31T11:07:22;13.35;;;5.97;;
20519;SDS011;53432;51.952;14.740;2022-10-31T11:09:49;13.63;;;5.10;;
20519;SDS011;53432;51.952;14.740;2022-10-31T11:12:19;10.45;;;5.15;;
20519;SDS011;53432;51.952;14.740;2022-10-31T11:14:49;12.10;;;5.57;;
20519;SDS011;53432;51.952;14.740;2022-10-31T11:17:27;13.00;;;5.28;;
20519;SDS011;53432;51.952;14.740;2022-10-31T11:20:01;12.82;;;5.55;;
20519;SDS011;53432;51.952;14.740;2022-10-31T11:22:33;19.83;;;5.63;;
20519;SDS011;53432;51.952;14.740;2022-10-31T11:25:00;11.25;;;5.38;;
20519;SDS011;53432;51.952;14.740;2022-10-31T11:27:38;12.38;;;4.97;;
20519;SDS011;53432;51.952;14.740;2022-10-31T11:30:05;12.80;;;4.95;;
20519;SDS011;53432;51.952;14.740;2022-10-31T11:32:35;11.27;;;5.40;;
20519;SDS011;53432;51.952;14.740;2022-10-31T11:35:07;12.07;;;4.47;;
20519;SDS011;53432;51.952;14.740;2022-10-31T11:37:40;7.95;;;3.90;;
20519;SDS011;53432;51.952;14.740;2022-10-31T11:40:15;14.43;;;4.90;;
20519;SDS011;53432;51.952;14.740;2022-10-31T11:42:44;9.27;;;4.18;;
20519;SDS011;53432;51.952;14.740;2022-10-31T11:45:14;14.20;;;5.03;;
20519;SDS011;53432;51.952;14.740;2022-10-31T11:47:46;8.25;;;4.53;;
20519;SDS011;53432;51.952;14.740;2022-10-31T11:50:18;12.30;;;4.85;;
20519;SDS011;53432;51.952;14.740;2022-10-31T11:52:49;11.82;;;4.82;;
20519;SDS011;53432;51.952;14.740;2022-10-31T11:55:28;10.85;;;4.72;;
20519;SDS011;53432;51.952;14.740;2022-10-31T11:57:58;16.23;;;5.10;;
20519;SDS011;53432;51.952;14.740;2022-10-31T12:00:26;9.00;;;4.60;;
20519;SDS011;53432;51.952;14.740;2022-10-31T12:03:10;10.57;;;4.80;;
20519;SDS011;53432;51.952;14.740;2022-10-31T12:05:40;9.88;;;5.13;;
20519;SDS011;53432;51.952;14.740;2022-10-31T12:08:11;11.00;;;5.13;;
20519;SDS011;53432;51.952;14.740;2022-10-31T12:10:40;12.98;;;4.07;;
20519;SDS011;53432;51.952;14.740;2022-10-31T12:13:24;10.07;;;5.00;;
20519;SDS011;53432;51.952;14.740;2022-10-31T12:16:00;14.27;;;5.03;;
20519;SDS011;53432;51.952;14.740;2022-10-31T12:18:37;6.03;;;4.50;;
20519;SDS011;53432;51.952;14.740;2022-10-31T12:21:21;11.40;;;5.05;;
20519;SDS011;53432;51.952;14.740;2022-10-31T12:24:04;15.30;;;5.47;;
20519;SDS011;53432;51.952;14.740;2022-10-31T12:26:41;9.68;;;4.78;;
20519;SDS011;53432;51.952;14.740;2022-10-31T12:29:20;12.68;;;5.13;;
20519;SDS011;53432;51.952;14.740;2022-10-31T12:32:01;11.07;;;4.72;;
20519;SDS011;53432;51.952;14.740;2022-10-31T12:34:47;8.60;;;4.78;;
20519;SDS011;53432;51.952;14.740;2022-10-31T12:37:31;11.00;;;5.10;;
20519;SDS011;53432;51.952;14.740;2022-10-31T12:40:09;12.55;;;5.88;;
20519;SDS011;53432;51.952;14.740;2022-10-31T12:42:56;12.40;;;5.30;;
20519;SDS011;53432;51.952;14.740;2022-10-31T12:48:37;18.70;;;5.68;;
20519;SDS011;53432;51.952;14.740;2022-10-31T12:51:29;10.88;;;4.70;;
20519;SDS011;53432;51.952;14.740;2022-10-31T12:54:14;10.88;;;4.97;;
20519;SDS011;53432;51.952;14.740;2022-10-31T12:56:50;14.10;;;5.38;;
20519;SDS011;53432;51.952;14.740;2022-10-31T12:59:27;12.48;;;5.38;;
20519;SDS011;53432;51.952;14.740;2022-10-31T13:01:59;11.32;;;5.18;;
20519;SDS011;53432;51.952;14.740;2022-10-31T13:04:36;12.77;;;4.85;;
20519;SDS011;53432;51.952;14.740;2022-10-31T13:07:11;14.23;;;5.07;;
20519;SDS011;53432;51.952;14.740;2022-10-31T13:09:45;11.55;;;5.35;;
20519;SDS011;53432;51.952;14.740;2022-10-31T13:12:18;12.80;;;5.05;;
20519;SDS011;53432;51.952;14.740;2022-10-31T13:14:49;10.23;;;4.57;;
20519;SDS011;53432;51.952;14.740;2022-10-31T13:17:22;14.98;;;5.35;;
20519;SDS011;53432;51.952;14.740;2022-10-31T13:20:05;9.70;;;5.53;;
20519;SDS011;53432;51.952;14.740;2022-10-31T13:22:44;8.35;;;5.55;;
20519;SDS011;53432;51.952;14.740;2022-10-31T13:25:15;14.77;;;5.85;;
20519;SDS011;53432;51.952;14.740;2022-10-31T13:27:46;12.80;;;5.57;;
20519;SDS011;53432;51.952;14.740;2022-10-31T13:30:18;12.57;;;4.90;;
20519;SDS011;53432;51.952;14.740;2022-10-31T13:32:48;16.08;;;6.00;;
20519;SDS011;53432;51.952;14.740;2022-10-31T13:35:20;13.23;;;6.03;;
20519;SDS011;53432;51.952;14.740;2022-10-31T13:37:56;16.60;;;6.60;;
20519;SDS011;53432;51.952;14.740;2022-10-31T13:40:43;9.05;;;5.38;;
20519;SDS011;53432;51.952;14.740;2022-10-31T13:43:21;10.88;;;4.82;;
20519;SDS011;53432;51.952;14.740;2022-10-31T13:45:55;12.77;;;5.75;;
20519;SDS011;53432;51.952;14.740;2022-10-31T13:48:35;13.50;;;5.97;;
20519;SDS011;53432;51.952;14.740;2022-10-31T13:51:07;10.32;;;6.18;;
20519;SDS011;53432;51.952;14.740;2022-10-31T13:53:38;11.10;;;5.95;;
20519;SDS011;53432;51.952;14.740;2022-10-31T13:56:14;12.23;;;6.70;;
20519;SDS011;53432;51.952;14.740;2022-10-31T13:58:55;14.18;;;6.45;;
20519;SDS011;53432;51.952;14.740;2022-10-31T14:01:28;20.40;;;6.95;;
20519;SDS011;53432;51.952;14.740;2022-10-31T14:04:02;15.88;;;7.25;;
20519;SDS011;53432;51.952;14.740;2022-10-31T14:06:35;12.73;;;6.45;;
20519;SDS011;53432;51.952;14.740;2022-10-31T14:09:23;12.55;;;5.75;;
20519;SDS011;53432;51.952;14.740;2022-10-31T14:11:54;11.15;;;6.63;;
20519;SDS011;53432;51.952;14.740;2022-10-31T14:14:23;15.20;;;6.68;;
20519;SDS011;53432;51.952;14.740;2022-10-31T14:16:56;10.45;;;6.80;;
20519;SDS011;53432;51.952;14.740;2022-10-31T14:19:25;12.65;;;6.35;;
20519;SDS011;53432;51.952;14.740;2022-10-31T14:21:53;14.93;;;6.38;;
20519;SDS011;53432;51.952;14.740;2022-10-31T14:27:30;12.60;;;6.50;;
20519;SDS011;53432;51.952;14.740;2022-10-31T14:30:17;11.98;;;6.00;;
20519;SDS011;53432;51.952;14.740;2022-10-31T14:32:49;23.23;;;6.93;;
20519;SDS011;53432;51.952;14.740;2022-10-31T14:35:18;12.80;;;6.30;;
20519;SDS011;53432;51.952;14.740;2022-10-31T14:40:42;23.50;;;9.93;;
20519;SDS011;53432;51.952;14.740;2022-10-31T14:43:25;48.40;;;21.15;;
20519;SDS011;53432;51.952;14.740;2022-10-31T14:46:16;22.95;;;13.68;;
20519;SDS011;53432;51.952;14.740;2022-10-31T14:48:57;65.13;;;28.00;;
20519;SDS011;53432;51.952;14.740;2022-10-31T14:51:38;40.35;;;17.73;;
20519;SDS011;53432;51.952;14.740;2022-10-31T14:54:11;89.57;;;36.28;;
20519;SDS011;53432;51.952;14.740;2022-10-31T14:56:45;102.03;;;40.88;;